Airfield :
LOGIN :

Register | Disclaimer

   EN    FR    IT 

 










Legend :    VFR   Marginal VFR   IFR   Intensive IFR   Very Intensive IFR
Visi :
Ceiling :
>= 8 km
>= 3000ft
5 to 8 km
1000 to 3000 ft
1500m to 5 km
500 to 1000 ft
800 to 1500m
200 to 500 ft
< 800m
< 200 ft
Symbols :   Thunderstorms  Fog  Heavy snow  Heavy precipitations  Wind > 20 kt
SIGMETs :     Misc.  Thunderstorms  Icing  Turbulence  Mountain Waves  Volcanic Ashes







- Airport Elevation : 24 ft
- IATA code : IBZ


LEIB - Ibiza

CURRENT METAR :
  • 210930Z 08008KT 050V110 9999 FEW020 28/19 Q1020 NOSIG

EXPIRED METARs :
  • 210900Z 08008KT 050V120 9999 FEW020 27/19 Q1020 NOSIG
  • 210830Z 07007KT 040V110 CAVOK 27/19 Q1020 NOSIG
  • 210800Z 07007KT CAVOK 27/19 Q1020 NOSIG
  • 210730Z 07005KT 030V100 CAVOK 27/19 Q1020 NOSIG
  • 210700Z 04004KT CAVOK 26/19 Q1020 NOSIG

TAF TAF LEIB
Valid from the 21 at 09:00 until the 22 at 09:00 UTC


210800Z 2109/2209 09008KT 9999 SCT020 TX30/2112Z TN21/2205Z
BECMG 2120/2123 VRB03KT
No reported NOTAMs for that airfield.



MET'MAP, your aeronautical weather chart ! - Copyright ORBIFLY December 2007 - Disclaimer

ORBIFLY MET'MAP TEAM :

Programming & Development : Alexandra Zaïnal
Concept & Development : Baudouin d'Aumeries
Co-Development & Prog : Marc-Olivier Méhu
Technical & hardware support : Manuel Goepfert

Contact : metmap@orbifly.com




SOURCES & CREDITS :

   NOAA